M T Mrc Semiramis — 9HIN9 — position and weather

sailwx.info

Track history (hours):
 
Tides and Currents Weather Stations Pressure Air Temp Water Temp Dewpoint Dewpoint Depression Visibility Wind Speed Wind Dir Waves Ship Positions

M T Mrc Semiramis

Last reported at 2018-Jul-20 13:14 UTC. Time now 2018-Jul-20 14:18 UTC.
Position N 36°41' E 000°22'.

Length 107 m; draft 5.8 m.

Type: Tanker. MMSI: 249028000.

Date/timePositionNaut miles runAvg speedWind from/ knotsBaromVisibWave heightAir tempDewpointWater temp
2018-Jul-20 13:14N 36°41' E 000°22'312.5
2018-Jul-20 12:59N 36°40' E 000°18'4112.4
2018-Jul-20 09:43N 36°31' W 000°31'311.8
2018-Jul-20 09:30N 36°30' W 000°34'1311.9
2018-Jul-20 08:25N 36°28' W 000°50'24513.3
2018-Jul-19 14:02N 35°54' W 005°50'912.0
2018-Jul-19 13:19N 35°53' W 006°01'512.7
2018-Jul-19 12:56N 35°53' W 006°07'712.8
2018-Jul-19 12:24N 35°53' W 006°15'612.5
2018-Jul-19 11:57N 35°53' W 006°22'10412.5
2018-Jul-19 03:39N 36°18' W 008°27'312.1
2018-Jul-19 03:24N 36°19' W 008°30'511.9
2018-Jul-19 03:00N 36°20' W 008°36'811.9
2018-Jul-19 02:20N 36°22' W 008°46'512.2
2018-Jul-19 01:54N 36°24' W 008°52'512.2
2018-Jul-19 01:30N 36°25' W 008°58'611.9
2018-Jul-19 01:00N 36°26' W 009°05'811.9
2018-Jul-19 00:21N 36°28' W 009°14'512.0
2018-Jul-18 23:54N 36°30' W 009°21'9512.3
2018-Jul-18 16:13N 37°60' W 010°01'312.5
2018-Jul-18 15:59N 38°02' W 010°02'2312.7
2018-Jul-18 14:11N 38°25' W 010°08'1012.6
2018-Jul-18 13:22N 38°35' W 010°11'812.0
2018-Jul-18 12:41N 38°43' W 010°13'313.1
2018-Jul-18 12:29N 38°45' W 010°13'1213.4
2018-Jul-18 11:35N 38°57' W 010°13'212.9
2018-Jul-18 11:28N 38°59' W 010°13'58312.0
2018-Jul-16 10:58N 48°16' W 006°19'4811.9
2018-Jul-16 06:58N 48°57' W 005°41'710.1
2018-Jul-16 06:16N 49°01' W 005°32'410.2
2018-Jul-16 05:51N 49°03' W 005°26'910.3
2018-Jul-16 04:57N 49°07' W 005°14'510.7
2018-Jul-16 04:30N 49°10' W 005°08'611.0
2018-Jul-16 04:00N 49°12' W 005°00'611.2
2018-Jul-16 03:30N 49°15' W 004°53'612.0
2018-Jul-16 03:01N 49°18' W 004°45'1012.5
2018-Jul-16 02:13N 49°23' W 004°32'312.8
2018-Jul-16 02:00N 49°24' W 004°28'913.3
2018-Jul-16 01:21N 49°29' W 004°17'513.6
2018-Jul-16 01:00N 49°31' W 004°11'713.2
2018-Jul-16 00:28N 49°35' W 004°01'613.0
2018-Jul-15 23:58N 49°38' W 003°52'612.4
2018-Jul-15 23:30N 49°41' W 003°45'611.9
2018-Jul-15 23:00N 49°43' W 003°36'611.4
2018-Jul-15 22:30N 49°46' W 003°29'510.7
2018-Jul-15 22:01N 49°49' W 003°22'510.2
2018-Jul-15 21:31N 49°52' W 003°15'5 9.9
2018-Jul-15 21:00N 49°54' W 003°08'5 9.8
2018-Jul-15 20:30N 49°57' W 003°02'5 9.9
2018-Jul-15 20:01N 49°59' W 002°55'510.1
2018-Jul-15 19:30N 50°00' W 002°47'510.6
2018-Jul-15 19:00N 50°02' W 002°39'611.2
2018-Jul-15 18:31N 50°03' W 002°31'612.1
2018-Jul-15 18:01N 50°05' W 002°22'713.0
2018-Jul-15 17:30N 50°07' W 002°12'714.3
2018-Jul-15 17:00N 50°09' W 002°02'915.1
2018-Jul-15 16:24N 50°12' W 001°48'615.5
2018-Jul-15 15:59N 50°14' W 001°38'1215.6
2018-Jul-15 15:12N 50°17' W 001°20'315.6
2018-Jul-15 15:00N 50°18' W 001°15'815.5
2018-Jul-15 14:30N 50°19' W 001°03'714.5
2018-Jul-15 14:00N 50°21' W 000°53'613.0
2018-Jul-15 13:30N 50°24' W 000°43'611.9
2018-Jul-15 13:00N 50°26' W 000°34'611.5
2018-Jul-15 12:29N 50°27' W 000°25'511.1
2018-Jul-15 12:00N 50°29' W 000°17'610.6
2018-Jul-15 11:29N 50°30' W 000°09'510.1
2018-Jul-15 11:00N 50°31' W 000°01'5 9.5
2018-Jul-15 10:30N 50°33' E 000°06'5 9.2
2018-Jul-15 10:00N 50°34' E 000°13'5 9.3
2018-Jul-15 09:30N 50°35' E 000°20'5 9.9
2018-Jul-15 09:00N 50°36' E 000°27'510.6
2018-Jul-15 08:30N 50°38' E 000°35'612.2
2018-Jul-15 08:00N 50°42' E 000°43'713.3
2018-Jul-15 07:30N 50°46' E 000°51'713.9
2018-Jul-15 07:00N 50°50' E 001°00'713.7
2018-Jul-15 06:30N 50°54' E 001°09'713.4
2018-Jul-15 06:00N 50°59' E 001°17'612.9
2018-Jul-15 05:30N 51°03' E 001°24'612.0
2018-Jul-15 05:01N 51°06' E 001°32'510.5
2018-Jul-15 04:31N 51°10' E 001°38'510.1
2018-Jul-15 04:00N 51°13' E 001°45'5 9.6
2018-Jul-15 03:30N 51°17' E 001°49'5 9.3
2018-Jul-15 03:00N 51°21' E 001°53'5 9.2
2018-Jul-15 02:30N 51°25' E 001°57'5 9.2
2018-Jul-15 02:00N 51°28' E 002°01'5 9.8
2018-Jul-15 01:30N 51°32' E 002°06'510.2
2018-Jul-15 01:00N 51°36' E 002°12'510.5
2018-Jul-15 00:30N 51°40' E 002°17'611.5
2018-Jul-15 00:00N 51°44' E 002°23'612.3
2018-Jul-14 23:30N 51°49' E 002°29'612.9
2018-Jul-14 23:00N 51°54' E 002°36'713.1
2018-Jul-14 22:30N 51°58' E 002°44'612.8
2018-Jul-14 22:00N 52°02' E 002°53'612.5
2018-Jul-14 21:30N 52°02' E 003°03'612.5
2018-Jul-14 21:01N 52°03' E 003°13'612.1
2018-Jul-14 20:30N 52°03' E 003°23'612.0
2018-Jul-14 20:00N 52°03' E 003°32'612.0
2018-Jul-14 19:30N 52°03' E 003°42'611.7
2018-Jul-14 19:00N 52°02' E 003°52'510.4
2018-Jul-14 18:30N 52°01' E 003°60'713.1
2018-Jul-14 18:00N 51°58' E 004°09'612.5
2018-Jul-14 17:30N 51°54' E 004°17'3 1.9
2018-Jul-14 16:03N 51°54' E 004°22'0 0.0
2018-Jul-14 13:45N 51°54' E 004°22'0 0.0
2018-Jul-14 13:24N 51°54' E 004°22'0 0.0
2018-Jul-14 09:51N 51°54' E 004°22'0 0.0
2018-Jul-14 08:39N 51°54' E 004°22'0 0.0
2018-Jul-14 08:27N 51°54' E 004°22'0 0.0
2018-Jul-14 07:54N 51°54' E 004°22'0 0.0
2018-Jul-14 07:30N 51°54' E 004°22'0 0.0
2018-Jul-14 06:54N 51°54' E 004°22'0 0.0
2018-Jul-14 06:30N 51°54' E 004°22'0 0.0
2018-Jul-14 06:00N 51°54' E 004°22'0 0.0
2018-Jul-14 05:30N 51°54' E 004°22'0 0.0
2018-Jul-14 05:00N 51°54' E 004°22'0 0.0
2018-Jul-14 04:06N 51°54' E 004°22'0 0.0
2018-Jul-14 03:54N 51°54' E 004°22'0 0.0
2018-Jul-14 03:27N 51°54' E 004°22'0 0.0
2018-Jul-14 02:48N 51°54' E 004°22'0 0.0
2018-Jul-14 02:30N 51°54' E 004°22'0 0.0
2018-Jul-14 02:00N 51°54' E 004°22'0 0.0
2018-Jul-14 01:24N 51°54' E 004°22'0 0.0
2018-Jul-14 00:57N 51°54' E 004°22'0 0.0
2018-Jul-14 00:18N 51°54' E 004°22'0 0.1
2018-Jul-14 00:00N 51°54' E 004°22'0 0.0
2018-Jul-13 23:30N 51°54' E 004°22'0 0.0
2018-Jul-13 22:04N 51°54' E 004°22'0 0.1
2018-Jul-13 22:00N 51°54' E 004°22'0 0.1
2018-Jul-13 21:30N 51°54' E 004°22'2 4.2
2018-Jul-13 21:00N 51°54' E 004°18'510.6
2018-Jul-13 20:30N 51°57' E 004°11'510.4
2018-Jul-13 20:00N 51°59' E 004°04'510.3
2018-Jul-13 19:30N 51°60' E 003°55'5 9.8
2018-Jul-13 19:00N 51°59' E 003°48'4 8.8
2018-Jul-13 18:31N 51°57' E 003°41'4 8.0
2018-Jul-13 18:01N 51°55' E 003°36'0 0.2
2018-Jul-13 17:27N 51°54' E 003°36'0 0.1
2018-Jul-13 16:54N 51°55' E 003°36'0 0.2
2018-Jul-13 16:30N 51°55' E 003°36'0 0.1
2018-Jul-13 16:00N 51°55' E 003°36'0 0.0
2018-Jul-13 15:30N 51°55' E 003°36'0 0.0
2018-Jul-13 14:02N 51°55' E 003°36'0 0.0
2018-Jul-13 13:08N 51°55' E 003°36'0 0.2
2018-Jul-13 12:42N 51°55' E 003°36'0 0.2
2018-Jul-13 12:29N 51°55' E 003°36'0 0.1
2018-Jul-13 12:00N 51°54' E 003°36'0 0.1
2018-Jul-13 11:20N 51°54' E 003°36'0 0.0
2018-Jul-13 10:54N 51°54' E 003°36'0 0.0
2018-Jul-13 10:29N 51°54' E 003°36'0 0.0
2018-Jul-13 09:57N 51°54' E 003°36'0 0.0
2018-Jul-13 09:29N 51°55' E 003°36'0 0.0
2018-Jul-13 09:00N 51°54' E 003°36'0 0.0
2018-Jul-13 08:17N 51°54' E 003°36'0 0.0
2018-Jul-13 07:47N 51°54' E 003°36'0 0.0
2018-Jul-13 07:24N 51°54' E 003°36'0 0.0
2018-Jul-13 06:59N 51°55' E 003°36'0 0.0
2018-Jul-13 06:18N 51°54' E 003°36'0 0.0
2018-Jul-13 05:47N 51°54' E 003°36'0 0.0
2018-Jul-13 05:20N 51°54' E 003°36'0 0.2
2018-Jul-13 04:59N 51°55' E 003°36'2 4.9
2018-Jul-13 04:30N 51°56' E 003°32'612.7
2018-Jul-13 04:00N 51°55' E 003°22'713.2
2018-Jul-13 03:30N 51°53' E 003°12'713.2
2018-Jul-13 03:00N 51°51' E 003°02'713.4
2018-Jul-13 02:30N 51°49' E 002°51'713.7
2018-Jul-13 02:00N 51°47' E 002°41'714.0
2018-Jul-13 01:30N 51°42' E 002°32'814.3
2018-Jul-13 00:58N 51°37' E 002°23'714.3
2018-Jul-13 00:30N 51°31' E 002°18'714.2
2018-Jul-13 00:01N 51°25' E 002°12'714.0
2018-Jul-12 23:30N 51°19' E 002°08'713.5
2018-Jul-12 23:00N 51°13' E 002°02'714.1
2018-Jul-12 22:31N 51°09' E 001°53'714.2
2018-Jul-12 22:01N 51°05' E 001°44'714.0
2018-Jul-12 21:31N 50°59' E 001°37'713.3
2018-Jul-12 21:00N 50°54' E 001°30'612.3
2018-Jul-12 20:30N 50°48' E 001°26'612.1
2018-Jul-12 19:59N 50°43' E 001°23'612.1
2018-Jul-12 19:30N 50°38' E 001°17'1112.1
2018-Jul-12 18:38N 50°32' E 001°04'311.8
2018-Jul-12 18:24N 50°30' E 001°01'2911.5
2018-Jul-12 15:51N 50°22' E 000°16'410.9
2018-Jul-12 15:29N 50°21' E 000°10'510.9
2018-Jul-12 14:59N 50°20' E 000°02'810.8
2018-Jul-12 14:17N 50°18' W 000°10'510.5
2018-Jul-12 13:50N 50°17' W 000°17'410.3
2018-Jul-12 13:28N 50°16' W 000°23'810.1
2018-Jul-12 12:39N 50°14' W 000°35'310.2
2018-Jul-12 12:24N 50°13' W 000°39'510.4
2018-Jul-12 11:57N 50°11' W 000°46'510.6
2018-Jul-12 11:28N 50°09' W 000°53'511.1
2018-Jul-12 11:00N 50°07' W 001°01'611.3
2018-Jul-12 10:30N 50°06' W 001°09'612.1
2018-Jul-12 10:01N 50°04' W 001°18'713.2
2018-Jul-12 09:27N 50°02' W 001°29'714.2
2018-Jul-12 08:59N 50°00' W 001°39'3515.2
2018-Jul-12 06:41N 49°51' W 002°31'415.0
2018-Jul-12 06:26N 49°50' W 002°37'614.9
2018-Jul-12 06:00N 49°49' W 002°47'814.5
2018-Jul-12 05:25N 49°45' W 002°59'614.0
2018-Jul-12 05:00N 49°42' W 003°06'714.4
2018-Jul-12 04:31N 49°39' W 003°16'1214.3
2018-Jul-12 03:40N 49°33' W 003°32'414.0
2018-Jul-12 03:25N 49°31' W 003°37'714.2
2018-Jul-12 02:54N 49°28' W 003°47'1713.5
2018-Jul-12 01:39N 49°19' W 004°10'213.2
2018-Jul-12 01:28N 49°18' W 004°13'1612.8
2018-Jul-12 00:14N 49°10' W 004°34'612.2
2018-Jul-11 23:42N 49°07' W 004°42'212.2
2018-Jul-11 23:31N 49°06' W 004°46'611.8
2018-Jul-11 23:00N 49°03' W 004°54'611.9
2018-Jul-11 22:30N 49°00' W 005°01'611.6
2018-Jul-11 22:00N 48°57' W 005°09'611.3
2018-Jul-11 21:31N 48°54' W 005°16'611.1
2018-Jul-11 21:01N 48°52' W 005°24'611.1
2018-Jul-11 20:30N 48°49' W 005°31'611.3
2018-Jul-11 19:58N 48°45' W 005°38'1110.7
2018-Jul-11 18:57N 48°35' W 005°45'7310.3
2018-Jul-11 11:52N 47°29' W 004°60'512.2
2018-Jul-11 11:25N 47°26' W 004°53'2312.5
2018-Jul-11 09:32N 47°11' W 004°26'512.5
2018-Jul-11 09:08N 47°08' W 004°21'212.7
2018-Jul-11 08:59N 47°06' W 004°18'1813.2
2018-Jul-11 07:35N 46°55' W 003°57'512.8
2018-Jul-11 07:13N 46°52' W 003°52'413.0
2018-Jul-11 06:54N 46°50' W 003°47'613.0
2018-Jul-11 06:28N 46°46' W 003°40'613.1
2018-Jul-11 06:01N 46°42' W 003°33'612.6
2018-Jul-11 05:31N 46°39' W 003°26'712.5
2018-Jul-11 04:59N 46°35' W 003°19'612.4
2018-Jul-11 04:29N 46°31' W 003°11'612.6
2018-Jul-11 03:59N 46°27' W 003°04'612.7
2018-Jul-11 03:30N 46°23' W 002°57'812.9
2018-Jul-11 02:51N 46°18' W 002°48'512.8
2018-Jul-11 02:30N 46°15' W 002°42'712.6
2018-Jul-11 01:58N 46°11' W 002°35'612.3
2018-Jul-11 01:30N 46°08' W 002°28'612.3
2018-Jul-11 01:00N 46°04' W 002°21'612.4
2018-Jul-11 00:30N 46°01' W 002°14'612.2
2018-Jul-11 00:00N 45°57' W 002°07'612.2
2018-Jul-10 23:30N 45°54' W 001°59'612.3
2018-Jul-10 23:00N 45°50' W 001°52'612.2
2018-Jul-10 22:31N 45°47' W 001°45'611.9
2018-Jul-10 22:01N 45°43' W 001°39'612.4
2018-Jul-10 21:30N 45°39' W 001°32'612.8
2018-Jul-10 21:01N 45°36' W 001°23'714.0
2018-Jul-10 20:30N 45°39' W 001°14'713.1
2018-Jul-10 20:00N 45°37' W 001°05'713.6
2018-Jul-10 19:30N 45°32' W 000°60'715.0
2018-Jul-10 19:01N 45°26' W 000°53'714.9
2018-Jul-10 18:31N 45°20' W 000°47'  
Track history (hours):
 
Tides and Currents Weather Stations Pressure Air Temp Water Temp Dewpoint Dewpoint Depression Visibility Wind Speed Wind Dir Waves Ship Positions

M T Mrc Semiramis

Last reported at 2018-Jul-20 13:14 UTC. Time now 2018-Jul-20 14:18 UTC.
Position N 36°41' E 000°22'.

Length 107 m; draft 5.8 m.

Type: Tanker. MMSI: 249028000.

Date/timePositionNaut miles runAvg speedWind from/ knotsBaromVisibWave heightAir tempDewpointWater temp
2018-Jul-20 13:14N 36°41' E 000°22'312.5
2018-Jul-20 12:59N 36°40' E 000°18'4112.4
2018-Jul-20 09:43N 36°31' W 000°31'311.8
2018-Jul-20 09:30N 36°30' W 000°34'1311.9
2018-Jul-20 08:25N 36°28' W 000°50'24513.3
2018-Jul-19 14:02N 35°54' W 005°50'912.0
2018-Jul-19 13:19N 35°53' W 006°01'512.7
2018-Jul-19 12:56N 35°53' W 006°07'712.8
2018-Jul-19 12:24N 35°53' W 006°15'612.5
2018-Jul-19 11:57N 35°53' W 006°22'10412.5
2018-Jul-19 03:39N 36°18' W 008°27'312.1
2018-Jul-19 03:24N 36°19' W 008°30'511.9
2018-Jul-19 03:00N 36°20' W 008°36'811.9
2018-Jul-19 02:20N 36°22' W 008°46'512.2
2018-Jul-19 01:54N 36°24' W 008°52'512.2
2018-Jul-19 01:30N 36°25' W 008°58'611.9
2018-Jul-19 01:00N 36°26' W 009°05'811.9
2018-Jul-19 00:21N 36°28' W 009°14'512.0
2018-Jul-18 23:54N 36°30' W 009°21'9512.3
2018-Jul-18 16:13N 37°60' W 010°01'312.5
2018-Jul-18 15:59N 38°02' W 010°02'2312.7
2018-Jul-18 14:11N 38°25' W 010°08'1012.6
2018-Jul-18 13:22N 38°35' W 010°11'812.0
2018-Jul-18 12:41N 38°43' W 010°13'313.1
2018-Jul-18 12:29N 38°45' W 010°13'1213.4
2018-Jul-18 11:35N 38°57' W 010°13'212.9
2018-Jul-18 11:28N 38°59' W 010°13'58312.0
2018-Jul-16 10:58N 48°16' W 006°19'4811.9
2018-Jul-16 06:58N 48°57' W 005°41'710.1
2018-Jul-16 06:16N 49°01' W 005°32'410.2
2018-Jul-16 05:51N 49°03' W 005°26'910.3
2018-Jul-16 04:57N 49°07' W 005°14'510.7
2018-Jul-16 04:30N 49°10' W 005°08'611.0
2018-Jul-16 04:00N 49°12' W 005°00'611.2
2018-Jul-16 03:30N 49°15' W 004°53'612.0
2018-Jul-16 03:01N 49°18' W 004°45'1012.5
2018-Jul-16 02:13N 49°23' W 004°32'312.8
2018-Jul-16 02:00N 49°24' W 004°28'913.3
2018-Jul-16 01:21N 49°29' W 004°17'513.6
2018-Jul-16 01:00N 49°31' W 004°11'713.2
2018-Jul-16 00:28N 49°35' W 004°01'613.0
2018-Jul-15 23:58N 49°38' W 003°52'612.4
2018-Jul-15 23:30N 49°41' W 003°45'611.9
2018-Jul-15 23:00N 49°43' W 003°36'611.4
2018-Jul-15 22:30N 49°46' W 003°29'510.7
2018-Jul-15 22:01N 49°49' W 003°22'510.2
2018-Jul-15 21:31N 49°52' W 003°15'5 9.9
2018-Jul-15 21:00N 49°54' W 003°08'5 9.8
2018-Jul-15 20:30N 49°57' W 003°02'5 9.9
2018-Jul-15 20:01N 49°59' W 002°55'510.1
2018-Jul-15 19:30N 50°00' W 002°47'510.6
2018-Jul-15 19:00N 50°02' W 002°39'611.2
2018-Jul-15 18:31N 50°03' W 002°31'612.1
2018-Jul-15 18:01N 50°05' W 002°22'713.0
2018-Jul-15 17:30N 50°07' W 002°12'714.3
2018-Jul-15 17:00N 50°09' W 002°02'915.1
2018-Jul-15 16:24N 50°12' W 001°48'615.5
2018-Jul-15 15:59N 50°14' W 001°38'1215.6
2018-Jul-15 15:12N 50°17' W 001°20'315.6
2018-Jul-15 15:00N 50°18' W 001°15'815.5
2018-Jul-15 14:30N 50°19' W 001°03'714.5
2018-Jul-15 14:00N 50°21' W 000°53'613.0
2018-Jul-15 13:30N 50°24' W 000°43'611.9
2018-Jul-15 13:00N 50°26' W 000°34'611.5
2018-Jul-15 12:29N 50°27' W 000°25'511.1
2018-Jul-15 12:00N 50°29' W 000°17'610.6
2018-Jul-15 11:29N 50°30' W 000°09'510.1
2018-Jul-15 11:00N 50°31' W 000°01'5 9.5
2018-Jul-15 10:30N 50°33' E 000°06'5 9.2
2018-Jul-15 10:00N 50°34' E 000°13'5 9.3
2018-Jul-15 09:30N 50°35' E 000°20'5 9.9
2018-Jul-15 09:00N 50°36' E 000°27'510.6
2018-Jul-15 08:30N 50°38' E 000°35'612.2
2018-Jul-15 08:00N 50°42' E 000°43'713.3
2018-Jul-15 07:30N 50°46' E 000°51'713.9
2018-Jul-15 07:00N 50°50' E 001°00'713.7
2018-Jul-15 06:30N 50°54' E 001°09'713.4
2018-Jul-15 06:00N 50°59' E 001°17'612.9
2018-Jul-15 05:30N 51°03' E 001°24'612.0
2018-Jul-15 05:01N 51°06' E 001°32'510.5
2018-Jul-15 04:31N 51°10' E 001°38'510.1
2018-Jul-15 04:00N 51°13' E 001°45'5 9.6
2018-Jul-15 03:30N 51°17' E 001°49'5 9.3
2018-Jul-15 03:00N 51°21' E 001°53'5 9.2
2018-Jul-15 02:30N 51°25' E 001°57'5 9.2
2018-Jul-15 02:00N 51°28' E 002°01'5 9.8
2018-Jul-15 01:30N 51°32' E 002°06'510.2
2018-Jul-15 01:00N 51°36' E 002°12'510.5
2018-Jul-15 00:30N 51°40' E 002°17'611.5
2018-Jul-15 00:00N 51°44' E 002°23'612.3
2018-Jul-14 23:30N 51°49' E 002°29'612.9
2018-Jul-14 23:00N 51°54' E 002°36'713.1
2018-Jul-14 22:30N 51°58' E 002°44'612.8
2018-Jul-14 22:00N 52°02' E 002°53'612.5
2018-Jul-14 21:30N 52°02' E 003°03'612.5
2018-Jul-14 21:01N 52°03' E 003°13'612.1
2018-Jul-14 20:30N 52°03' E 003°23'612.0
2018-Jul-14 20:00N 52°03' E 003°32'612.0
2018-Jul-14 19:30N 52°03' E 003°42'611.7
2018-Jul-14 19:00N 52°02' E 003°52'510.4
2018-Jul-14 18:30N 52°01' E 003°60'713.1
2018-Jul-14 18:00N 51°58' E 004°09'612.5
2018-Jul-14 17:30N 51°54' E 004°17'3 1.9
2018-Jul-14 16:03N 51°54' E 004°22'0 0.0
2018-Jul-14 13:45N 51°54' E 004°22'0 0.0
2018-Jul-14 13:24N 51°54' E 004°22'0 0.0
2018-Jul-14 09:51N 51°54' E 004°22'0 0.0
2018-Jul-14 08:39N 51°54' E 004°22'0 0.0
2018-Jul-14 08:27N 51°54' E 004°22'0 0.0
2018-Jul-14 07:54N 51°54' E 004°22'0 0.0
2018-Jul-14 07:30N 51°54' E 004°22'0 0.0
2018-Jul-14 06:54N 51°54' E 004°22'0 0.0
2018-Jul-14 06:30N 51°54' E 004°22'0 0.0
2018-Jul-14 06:00N 51°54' E 004°22'0 0.0
2018-Jul-14 05:30N 51°54' E 004°22'0 0.0
2018-Jul-14 05:00N 51°54' E 004°22'0 0.0
2018-Jul-14 04:06N 51°54' E 004°22'0 0.0
2018-Jul-14 03:54N 51°54' E 004°22'0 0.0
2018-Jul-14 03:27N 51°54' E 004°22'0 0.0
2018-Jul-14 02:48N 51°54' E 004°22'0 0.0
2018-Jul-14 02:30N 51°54' E 004°22'0 0.0
2018-Jul-14 02:00N 51°54' E 004°22'0 0.0
2018-Jul-14 01:24N 51°54' E 004°22'0 0.0
2018-Jul-14 00:57N 51°54' E 004°22'0 0.0
2018-Jul-14 00:18N 51°54' E 004°22'0 0.1
2018-Jul-14 00:00N 51°54' E 004°22'0 0.0
2018-Jul-13 23:30N 51°54' E 004°22'0 0.0
2018-Jul-13 22:04N 51°54' E 004°22'0 0.1
2018-Jul-13 22:00N 51°54' E 004°22'0 0.1
2018-Jul-13 21:30N 51°54' E 004°22'2 4.2
2018-Jul-13 21:00N 51°54' E 004°18'510.6
2018-Jul-13 20:30N 51°57' E 004°11'510.4
2018-Jul-13 20:00N 51°59' E 004°04'510.3
2018-Jul-13 19:30N 51°60' E 003°55'5 9.8
2018-Jul-13 19:00N 51°59' E 003°48'4 8.8
2018-Jul-13 18:31N 51°57' E 003°41'4 8.0
2018-Jul-13 18:01N 51°55' E 003°36'0 0.2
2018-Jul-13 17:27N 51°54' E 003°36'0 0.1
2018-Jul-13 16:54N 51°55' E 003°36'0 0.2
2018-Jul-13 16:30N 51°55' E 003°36'0 0.1
2018-Jul-13 16:00N 51°55' E 003°36'0 0.0
2018-Jul-13 15:30N 51°55' E 003°36'0 0.0
2018-Jul-13 14:02N 51°55' E 003°36'0 0.0
2018-Jul-13 13:08N 51°55' E 003°36'0 0.2
2018-Jul-13 12:42N 51°55' E 003°36'0 0.2
2018-Jul-13 12:29N 51°55' E 003°36'0 0.1
2018-Jul-13 12:00N 51°54' E 003°36'0 0.1
2018-Jul-13 11:20N 51°54' E 003°36'0 0.0
2018-Jul-13 10:54N 51°54' E 003°36'0 0.0
2018-Jul-13 10:29N 51°54' E 003°36'0 0.0
2018-Jul-13 09:57N 51°54' E 003°36'0 0.0
2018-Jul-13 09:29N 51°55' E 003°36'0 0.0
2018-Jul-13 09:00N 51°54' E 003°36'0 0.0
2018-Jul-13 08:17N 51°54' E 003°36'0 0.0
2018-Jul-13 07:47N 51°54' E 003°36'0 0.0
2018-Jul-13 07:24N 51°54' E 003°36'0 0.0
2018-Jul-13 06:59N 51°55' E 003°36'0 0.0
2018-Jul-13 06:18N 51°54' E 003°36'0 0.0
2018-Jul-13 05:47N 51°54' E 003°36'0 0.0
2018-Jul-13 05:20N 51°54' E 003°36'0 0.2
2018-Jul-13 04:59N 51°55' E 003°36'2 4.9
2018-Jul-13 04:30N 51°56' E 003°32'612.7
2018-Jul-13 04:00N 51°55' E 003°22'713.2
2018-Jul-13 03:30N 51°53' E 003°12'713.2
2018-Jul-13 03:00N 51°51' E 003°02'713.4
2018-Jul-13 02:30N 51°49' E 002°51'713.7
2018-Jul-13 02:00N 51°47' E 002°41'714.0
2018-Jul-13 01:30N 51°42' E 002°32'814.3
2018-Jul-13 00:58N 51°37' E 002°23'714.3
2018-Jul-13 00:30N 51°31' E 002°18'714.2
2018-Jul-13 00:01N 51°25' E 002°12'714.0
2018-Jul-12 23:30N 51°19' E 002°08'713.5
2018-Jul-12 23:00N 51°13' E 002°02'714.1
2018-Jul-12 22:31N 51°09' E 001°53'714.2
2018-Jul-12 22:01N 51°05' E 001°44'714.0
2018-Jul-12 21:31N 50°59' E 001°37'713.3
2018-Jul-12 21:00N 50°54' E 001°30'612.3
2018-Jul-12 20:30N 50°48' E 001°26'612.1
2018-Jul-12 19:59N 50°43' E 001°23'612.1
2018-Jul-12 19:30N 50°38' E 001°17'1112.1
2018-Jul-12 18:38N 50°32' E 001°04'311.8
2018-Jul-12 18:24N 50°30' E 001°01'2911.5
2018-Jul-12 15:51N 50°22' E 000°16'410.9
2018-Jul-12 15:29N 50°21' E 000°10'510.9
2018-Jul-12 14:59N 50°20' E 000°02'810.8
2018-Jul-12 14:17N 50°18' W 000°10'510.5
2018-Jul-12 13:50N 50°17' W 000°17'410.3
2018-Jul-12 13:28N 50°16' W 000°23'810.1
2018-Jul-12 12:39N 50°14' W 000°35'310.2
2018-Jul-12 12:24N 50°13' W 000°39'510.4
2018-Jul-12 11:57N 50°11' W 000°46'510.6
2018-Jul-12 11:28N 50°09' W 000°53'511.1
2018-Jul-12 11:00N 50°07' W 001°01'611.3
2018-Jul-12 10:30N 50°06' W 001°09'612.1
2018-Jul-12 10:01N 50°04' W 001°18'713.2
2018-Jul-12 09:27N 50°02' W 001°29'714.2
2018-Jul-12 08:59N 50°00' W 001°39'3515.2
2018-Jul-12 06:41N 49°51' W 002°31'415.0
2018-Jul-12 06:26N 49°50' W 002°37'614.9
2018-Jul-12 06:00N 49°49' W 002°47'814.5
2018-Jul-12 05:25N 49°45' W 002°59'614.0
2018-Jul-12 05:00N 49°42' W 003°06'714.4
2018-Jul-12 04:31N 49°39' W 003°16'1214.3
2018-Jul-12 03:40N 49°33' W 003°32'414.0
2018-Jul-12 03:25N 49°31' W 003°37'714.2
2018-Jul-12 02:54N 49°28' W 003°47'1713.5
2018-Jul-12 01:39N 49°19' W 004°10'213.2
2018-Jul-12 01:28N 49°18' W 004°13'1612.8
2018-Jul-12 00:14N 49°10' W 004°34'612.2
2018-Jul-11 23:42N 49°07' W 004°42'212.2
2018-Jul-11 23:31N 49°06' W 004°46'611.8
2018-Jul-11 23:00N 49°03' W 004°54'611.9
2018-Jul-11 22:30N 49°00' W 005°01'611.6
2018-Jul-11 22:00N 48°57' W 005°09'611.3
2018-Jul-11 21:31N 48°54' W 005°16'611.1
2018-Jul-11 21:01N 48°52' W 005°24'611.1
2018-Jul-11 20:30N 48°49' W 005°31'611.3
2018-Jul-11 19:58N 48°45' W 005°38'1110.7
2018-Jul-11 18:57N 48°35' W 005°45'7310.3
2018-Jul-11 11:52N 47°29' W 004°60'512.2
2018-Jul-11 11:25N 47°26' W 004°53'2312.5
2018-Jul-11 09:32N 47°11' W 004°26'512.5
2018-Jul-11 09:08N 47°08' W 004°21'212.7
2018-Jul-11 08:59N 47°06' W 004°18'1813.2
2018-Jul-11 07:35N 46°55' W 003°57'512.8
2018-Jul-11 07:13N 46°52' W 003°52'413.0
2018-Jul-11 06:54N 46°50' W 003°47'613.0
2018-Jul-11 06:28N 46°46' W 003°40'613.1
2018-Jul-11 06:01N 46°42' W 003°33'612.6
2018-Jul-11 05:31N 46°39' W 003°26'712.5
2018-Jul-11 04:59N 46°35' W 003°19'612.4
2018-Jul-11 04:29N 46°31' W 003°11'612.6
2018-Jul-11 03:59N 46°27' W 003°04'612.7
2018-Jul-11 03:30N 46°23' W 002°57'812.9
2018-Jul-11 02:51N 46°18' W 002°48'512.8
2018-Jul-11 02:30N 46°15' W 002°42'712.6
2018-Jul-11 01:58N 46°11' W 002°35'612.3
2018-Jul-11 01:30N 46°08' W 002°28'612.3
2018-Jul-11 01:00N 46°04' W 002°21'612.4
2018-Jul-11 00:30N 46°01' W 002°14'612.2
2018-Jul-11 00:00N 45°57' W 002°07'612.2
2018-Jul-10 23:30N 45°54' W 001°59'612.3
2018-Jul-10 23:00N 45°50' W 001°52'612.2
2018-Jul-10 22:31N 45°47' W 001°45'611.9
2018-Jul-10 22:01N 45°43' W 001°39'612.4
2018-Jul-10 21:30N 45°39' W 001°32'612.8
2018-Jul-10 21:01N 45°36' W 001°23'714.0
2018-Jul-10 20:30N 45°39' W 001°14'713.1
2018-Jul-10 20:00N 45°37' W 001°05'713.6
2018-Jul-10 19:30N 45°32' W 000°60'715.0
2018-Jul-10 19:01N 45°26' W 000°53'714.9
2018-Jul-10 18:31N 45°20' W 000°47'  

Dump ship's entire track history